Time;durP1;ratioP1;P1;durP2;ratioP2;P2;SDS_P1;SDS_P2;PMS_P1;PMS_P2;Temp;Humidity;BMP_temperature;BMP_pressure;BME280_temperature;BME280_humidity;BME280_pressure;Samples;Min_cycle;Max_cycle;Signal;HPM_P1;HPM_P2
2022/01/20 00:01:03;;;;;;;4.30;1.75;;;16.90;54.40;;;;;;4999644;28;45250;-87
2022/01/20 00:03:36;;;;;;;2.55;1.17;;;17.00;54.80;;;;;;5022632;28;44558;-87
2022/01/20 00:09:13;;;;;;;3.60;1.55;;;17.80;55.30;;;;;;5012259;28;45552;-87
2022/01/20 00:23:41;;;;;;;5.30;1.50;;;17.00;54.20;;;;;;4998844;28;44535;-87
2022/01/20 00:26:13;;;;;;;4.22;1.27;;;16.90;58.70;;;;;;5008921;28;44689;-88
2022/01/20 00:28:48;;;;;;;2.33;0.98;;;17.10;54.40;;;;;;5007712;28;44651;-88
2022/01/20 00:34:32;;;;;;;3.88;1.40;;;17.20;55.30;;;;;;5000006;28;45298;-87
2022/01/20 00:37:19;;;;;;;2.55;1.17;;;17.00;54.30;;;;;;5015050;28;44715;-87
2022/01/20 00:40:01;;;;;;;3.53;1.20;;;15.80;52.90;;;;;;4995395;28;44756;-87
2022/01/20 00:42:36;;;;;;;3.80;1.58;;;16.90;56.70;;;;;;5017438;28;45623;-87
2022/01/20 00:45:17;;;;;;;3.45;1.45;;;17.00;54.10;;;;;;5021023;28;44696;-87
2022/01/20 00:47:49;;;;;;;2.45;1.38;;;17.00;54.70;;;;;;4982938;28;45052;-87
2022/01/20 00:50:42;;;;;;;3.85;1.42;;;17.30;55.00;;;;;;5014902;28;44791;-88
2022/01/20 00:53:12;;;;;;;2.88;1.35;;;17.10;60.00;;;;;;4992360;28;46281;-87
2022/01/20 00:58:34;;;;;;;4.00;1.42;;;16.80;53.20;;;;;;5034573;28;44640;-87
2022/01/20 01:01:10;;;;;;;4.82;1.70;;;16.90;52.40;;;;;;5025775;28;44693;-87
2022/01/20 01:03:51;;;;;;;3.88;1.38;;;17.10;51.90;;;;;;5014719;28;47330;-87
2022/01/20 01:06:43;;;;;;;4.38;1.38;;;17.00;53.10;;;;;;5014354;28;44579;-87
2022/01/20 01:09:15;;;;;;;4.65;1.55;;;17.00;52.80;;;;;;4980942;28;44722;-88
2022/01/20 01:11:52;;;;;;;5.25;1.50;;;16.70;51.40;;;;;;4993250;28;44809;-87
2022/01/20 01:14:30;;;;;;;5.20;1.52;;;17.10;51.40;;;;;;5014396;28;45664;-88
2022/01/20 01:22:47;;;;;;;4.13;1.33;;;17.50;53.00;;;;;;5017488;28;44634;-88
2022/01/20 01:25:16;;;;;;;3.67;1.35;;;17.00;53.60;;;;;;5029144;28;45110;-88
2022/01/20 01:27:54;;;;;;;5.55;1.67;;;17.00;50.60;;;;;;5014004;28;44633;-87
2022/01/20 01:33:37;;;;;;;4.75;1.80;;;17.10;50.70;;;;;;5014108;28;44857;-87
2022/01/20 01:36:12;;;;;;;3.88;1.77;;;17.00;53.70;;;;;;5013665;28;47597;-87
2022/01/20 01:38:42;;;;;;;3.35;1.42;;;17.50;51.90;;;;;;5014255;28;44836;-88
2022/01/20 01:41:16;;;;;;;4.40;1.55;;;17.10;51.50;;;;;;5014179;28;44701;-87
2022/01/20 01:43:50;;;;;;;3.72;1.70;;;16.90;51.10;;;;;;4997080;28;44893;-88
2022/01/20 01:46:20;;;;;;;3.35;1.50;;;17.00;50.90;;;;;;5014224;28;46831;-87
2022/01/20 01:48:57;;;;;;;5.28;1.38;;;17.40;51.50;;;;;;5013868;28;44479;-87
2022/01/20 01:55:03;;;;;;;4.88;1.55;;;16.90;51.40;;;;;;5014114;28;44886;-88
2022/01/20 02:01:00;;;;;;;5.00;1.90;;;15.50;50.00;;;;;;5013282;28;45139;-88
2022/01/20 03:00:52;;;;;;;5.22;1.42;;;17.10;50.70;;;;;;5027558;28;44763;-87
2022/01/20 03:03:19;;;;;;;2.60;1.40;;;17.00;49.30;;;;;;5012151;28;47306;-88
2022/01/20 03:05:55;;;;;;;3.40;1.35;;;17.00;50.40;;;;;;5012648;28;44568;-87
2022/01/20 03:08:24;;;;;;;3.80;1.40;;;17.00;48.70;;;;;;5012250;28;44555;-88
2022/01/20 03:10:55;;;;;;;3.53;1.50;;;17.00;48.90;;;;;;5012721;28;44870;-88
2022/01/20 03:13:32;;;;;;;4.70;1.33;;;17.00;48.60;;;;;;5012524;28;45549;-88
2022/01/20 03:16:06;;;;;;;3.60;1.17;;;17.00;48.80;;;;;;5011843;28;45024;-88
2022/01/20 03:18:35;;;;;;;3.80;1.23;;;17.00;48.70;;;;;;5012769;28;44537;-88
2022/01/20 03:21:10;;;;;;;4.10;1.52;;;17.00;48.20;;;;;;5011598;28;44902;-88
2022/01/20 03:23:38;;;;;;;2.97;1.27;;;17.00;48.50;;;;;;5016383;28;45383;-88
2022/01/20 03:26:08;;;;;;;3.28;1.20;;;16.90;49.00;;;;;;5032267;28;44832;-88
2022/01/20 03:28:44;;;;;;;4.05;1.17;;;16.90;49.00;;;;;;5025332;28;44571;-88
2022/01/20 03:34:21;;;;;;;1.55;0.82;;;16.90;49.10;;;;;;5011846;28;45632;-89
2022/01/20 03:40:36;;;;;;;2.95;1.10;;;17.10;49.10;;;;;;5013071;28;44747;-89
2022/01/20 04:10:25;;;;;;;3.75;1.40;;;17.10;48.80;;;;;;5015111;28;44826;-90
2022/01/20 04:17:08;;;;;;;3.80;1.17;;;17.10;48.10;;;;;;4995976;28;44577;-88
2022/01/20 04:22:48;;;;;;;3.65;1.20;;;16.90;48.40;;;;;;5014537;28;44897;-89
2022/01/20 04:25:26;;;;;;;4.38;1.10;;;17.30;49.00;;;;;;5015527;28;45571;-88
2022/01/20 04:30:49;;;;;;;4.60;1.45;;;17.20;48.90;;;;;;5015191;28;44545;-88
2022/01/20 04:33:34;;;;;;;2.20;1.27;;;17.30;49.20;;;;;;5014930;28;44597;-89
2022/01/20 04:36:04;;;;;;;3.08;1.42;;;17.20;49.70;;;;;;5025365;28;45410;-89
2022/01/20 04:41:29;;;;;;;4.72;1.35;;;17.30;48.80;;;;;;5015678;28;44606;-89
2022/01/20 04:47:53;;;;;;;2.53;0.95;;;16.90;50.90;;;;;;5013528;28;45667;-88
2022/01/20 05:11:09;;;;;;;2.97;0.90;;;17.20;51.80;;;;;;5008333;28;45388;-87
2022/01/20 05:13:50;;;;;;;3.65;1.55;;;17.00;48.30;;;;;;5014108;28;44763;-87
2022/01/20 05:16:42;;;;;;;3.10;1.50;;;17.00;51.60;;;;;;5005975;22;44934;-83
2022/01/20 05:19:21;;;;;;;4.50;1.58;;;16.80;48.90;;;;;;5020507;28;44799;-86
2022/01/20 05:27:36;;;;;;;6.30;1.33;;;16.80;48.80;;;;;;5012979;28;44759;-85
2022/01/20 05:33:00;;;;;;;2.95;1.00;;;16.00;47.90;;;;;;5015654;28;47027;-86
2022/01/20 05:35:46;;;;;;;2.47;1.13;;;16.80;48.60;;;;;;5011651;28;44797;-86
2022/01/20 05:38:43;;;;;;;2.25;1.13;;;17.10;48.80;;;;;;5012224;28;45189;-87
2022/01/20 05:44:14;;;;;;;2.88;0.90;;;16.70;48.50;;;;;;5014050;28;45504;-88
2022/01/20 05:47:12;;;;;;;2.80;1.15;;;16.80;51.30;;;;;;5025306;28;45193;-86
2022/01/20 05:49:39;;;;;;;2.35;0.90;;;16.80;49.20;;;;;;5019569;28;45388;-86
2022/01/20 05:52:36;;;;;;;2.70;1.20;;;16.80;51.60;;;;;;5013229;28;45301;-86
2022/01/20 05:55:26;;;;;;;2.80;0.80;;;17.10;49.70;;;;;;5004591;28;45656;-85
2022/01/20 06:03:43;;;;;;;3.08;0.85;;;17.10;54.50;;;;;;5005109;28;45287;-84
2022/01/20 06:06:18;;;;;;;1.58;0.75;;;16.00;49.00;;;;;;5014203;28;46030;-86
2022/01/20 06:09:00;;;;;;;4.15;1.20;;;16.90;49.20;;;;;;5027551;28;45414;-86
2022/01/20 06:11:55;;;;;;;1.40;0.70;;;16.80;51.40;;;;;;5023026;28;45192;-86
2022/01/20 06:15:02;;;;;;;2.67;0.85;;;17.00;50.30;;;;;;5013334;28;44934;-86
2022/01/20 06:17:37;;;;;;;1.55;0.70;;;18.50;51.60;;;;;;5008739;28;45693;-86
2022/01/20 06:20:27;;;;;;;3.35;0.95;;;16.80;49.60;;;;;;5034398;28;45279;-85
2022/01/20 06:23:08;;;;;;;1.63;0.50;;;16.80;49.20;;;;;;5041152;28;45105;-84
2022/01/20 06:25:37;;;;;;;1.83;0.65;;;18.30;51.70;;;;;;5026409;28;45220;-83
2022/01/20 06:30:52;;;;;;;3.08;0.88;;;16.80;53.30;;;;;;5023884;28;45302;-85
2022/01/20 06:33:26;;;;;;;2.08;0.73;;;16.70;53.00;;;;;;5022591;28;45480;-84
2022/01/20 06:36:13;;;;;;;1.35;0.60;;;16.80;50.10;;;;;;5026796;28;45312;-84
2022/01/20 06:39:02;;;;;;;2.10;0.70;;;16.60;49.90;;;;;;5025523;28;45624;-81
2022/01/20 06:41:35;;;;;;;2.63;1.00;;;16.80;49.90;;;;;;5017708;28;45416;-81
2022/01/20 06:44:05;;;;;;;1.00;0.47;;;16.70;50.40;;;;;;5030040;28;45368;-82
2022/01/20 06:46:48;;;;;;;2.08;0.80;;;16.80;50.70;;;;;;5014833;28;45020;-84
2022/01/20 06:52:18;;;;;;;2.55;0.70;;;16.80;51.40;;;;;;5025978;28;45156;-87
2022/01/20 06:55:31;;;;;;;1.85;0.88;;;16.90;52.50;;;;;;5044602;28;45191;-86
2022/01/20 06:58:05;;;;;;;2.22;0.70;;;16.90;49.60;;;;;;5045403;28;44798;-86
2022/01/20 07:00:37;;;;;;;3.65;0.88;;;17.20;49.90;;;;;;5042130;28;46677;-87
2022/01/20 07:06:36;;;;;;;3.58;0.75;;;17.10;50.10;;;;;;5044851;28;45054;-85
2022/01/20 07:09:04;;;;;;;1.90;0.80;;;17.00;50.60;;;;;;5024201;28;45248;-84
2022/01/20 07:11:33;;;;;;;1.92;0.70;;;15.30;49.30;;;;;;5018119;28;47595;-85
2022/01/20 07:14:22;;;;;;;1.92;0.82;;;16.90;51.40;;;;;;5016292;28;44969;-86
2022/01/20 07:16:49;;;;;;;2.78;0.70;;;16.90;51.80;;;;;;5012145;28;44870;-82
2022/01/20 07:19:20;;;;;;;1.30;0.52;;;16.90;51.40;;;;;;5020551;28;45572;-83
2022/01/20 07:22:01;;;;;;;1.38;0.63;;;17.10;52.20;;;;;;5020235;28;47023;-85
2022/01/20 07:24:35;;;;;;;4.10;0.93;;;16.90;48.90;;;;;;5012038;28;45126;-87
2022/01/20 07:35:30;;;;;;;2.92;0.77;;;16.90;49.00;;;;;;5007524;28;45257;-86
2022/01/20 07:38:11;;;;;;;2.78;0.90;;;16.90;49.20;;;;;;5014591;28;45131;-86
2022/01/20 07:40:51;;;;;;;2.47;0.73;;;17.00;49.00;;;;;;5035256;28;45315;-86
2022/01/20 07:49:53;;;;;;;3.10;0.93;;;17.40;53.20;;;;;;5136710;27;45211;-86
2022/01/20 07:56:03;;;;;;;2.05;0.88;;;17.00;47.70;;;;;;5122058;27;45290;-87
2022/01/20 07:59:21;;;;;;;2.67;0.95;;;17.20;48.80;;;;;;5133985;27;46249;-86
2022/01/20 08:05:05;;;;;;;1.42;0.70;;;17.00;49.80;;;;;;5133826;27;45189;-86
2022/01/20 08:07:44;;;;;;;3.22;0.95;;;17.10;47.90;;;;;;5119687;27;45321;-86
2022/01/20 08:10:15;;;;;;;1.65;0.93;;;17.00;48.90;;;;;;5129401;27;45309;-86
2022/01/20 08:12:54;;;;;;;2.13;0.80;;;16.90;48.60;;;;;;5138266;27;48527;-86
2022/01/20 08:15:35;;;;;;;2.22;0.70;;;16.60;48.30;;;;;;5129042;27;45548;-85
2022/01/20 08:18:12;;;;;;;3.42;1.00;;;17.00;47.60;;;;;;5119331;27;45305;-85
2022/01/20 08:21:07;;;;;;;3.92;0.80;;;16.90;49.20;;;;;;5119195;27;44987;-85
2022/01/20 08:23:52;;;;;;;2.92;1.00;;;16.90;47.50;;;;;;5130739;27;47240;-86
2022/01/20 08:26:40;;;;;;;4.20;0.88;;;16.90;47.40;;;;;;5133409;27;45022;-86
2022/01/20 08:29:09;;;;;;;4.05;1.13;;;16.90;47.50;;;;;;5117534;27;44839;-86
2022/01/20 08:31:37;;;;;;;2.42;1.00;;;16.90;49.20;;;;;;5135889;27;45300;-85
2022/01/20 08:34:06;;;;;;;3.13;1.20;;;16.90;49.70;;;;;;5137397;27;47756;-86
2022/01/20 08:36:35;;;;;;;3.10;1.05;;;17.00;49.80;;;;;;5138002;27;45149;-86
2022/01/20 08:39:10;;;;;;;2.65;1.08;;;17.40;50.60;;;;;;5130443;27;45290;-86
2022/01/20 08:41:41;;;;;;;2.80;1.17;;;17.00;48.70;;;;;;5120181;27;45521;-85
2022/01/20 08:44:12;;;;;;;4.07;1.00;;;17.10;52.90;;;;;;5116940;27;45465;-86
2022/01/20 08:46:42;;;;;;;2.50;1.00;;;17.00;47.00;;;;;;5117278;27;45325;-86
2022/01/20 08:49:11;;;;;;;2.92;0.98;;;17.00;50.60;;;;;;5115910;27;45308;-85
2022/01/20 08:51:43;;;;;;;4.40;1.10;;;17.00;50.60;;;;;;5135552;27;45168;-86
2022/01/20 08:54:11;;;;;;;3.15;1.10;;;17.10;46.80;;;;;;5135707;27;47362;-85
2022/01/20 08:56:41;;;;;;;2.50;1.10;;;16.90;47.70;;;;;;5126443;27;45351;-86
2022/01/20 08:59:16;;;;;;;2.10;1.00;;;15.60;46.80;;;;;;5111269;27;45088;-86
2022/01/20 09:01:47;;;;;;;2.35;0.90;;;16.90;48.50;;;;;;5122586;27;45383;-86
2022/01/20 09:04:15;;;;;;;2.67;0.98;;;16.90;48.80;;;;;;5117373;27;45738;-86
2022/01/20 09:06:45;;;;;;;1.23;0.60;;;17.30;47.90;;;;;;5114637;27;45341;-86
2022/01/20 09:09:16;;;;;;;1.77;0.68;;;16.90;50.30;;;;;;5111951;27;45394;-87
2022/01/20 09:12:02;;;;;;;2.15;0.57;;;16.90;47.80;;;;;;5115802;27;45227;-86
2022/01/20 09:17:17;;;;;;;1.73;0.70;;;17.00;47.60;;;;;;5110642;27;45143;-86
2022/01/20 09:19:45;;;;;;;2.03;0.63;;;18.60;51.60;;;;;;5123723;27;45182;-85
2022/01/20 09:22:15;;;;;;;5.32;1.10;;;17.00;48.10;;;;;;5123582;27;45169;-88
2022/01/20 09:24:45;;;;;;;2.67;0.80;;;17.00;47.00;;;;;;5120722;27;46893;-86
2022/01/20 09:27:15;;;;;;;2.65;0.77;;;16.80;46.70;;;;;;5124006;27;45122;-85
2022/01/20 09:29:55;;;;;;;2.13;0.75;;;17.10;45.70;;;;;;5112886;27;45276;-86
2022/01/20 09:32:38;;;;;;;3.40;0.70;;;17.00;45.30;;;;;;5123918;27;45132;-86
2022/01/20 09:35:11;;;;;;;1.75;0.50;;;16.90;44.70;;;;;;5103693;27;45379;-85
2022/01/20 09:37:56;;;;;;;1.45;0.60;;;16.90;45.50;;;;;;5112031;27;45142;-85
2022/01/20 09:40:39;;;;;;;1.17;0.60;;;16.80;44.40;;;;;;5126257;27;45155;-86
2022/01/20 09:46:33;;;;;;;1.83;0.80;;;17.40;46.10;;;;;;5124061;27;45523;-85
2022/01/20 09:49:09;;;;;;;4.15;0.90;;;16.90;44.70;;;;;;5123587;27;45706;-86
2022/01/20 09:54:37;;;;;;;1.75;0.68;;;17.00;47.10;;;;;;5103417;27;45325;-85
2022/01/20 10:00:03;;;;;;;2.70;0.70;;;16.90;44.70;;;;;;5104951;27;44717;-86
2022/01/20 10:02:36;;;;;;;1.38;0.65;;;16.80;44.50;;;;;;5112123;27;45209;-85
2022/01/20 10:05:14;;;;;;;2.72;0.80;;;17.60;46.70;;;;;;5104188;27;44955;-85
2022/01/20 10:07:46;;;;;;;2.97;0.68;;;17.70;51.20;;;;;;5112142;27;45582;-86
2022/01/20 10:10:41;;;;;;;3.90;1.27;;;16.50;44.00;;;;;;5124948;27;44890;-86
2022/01/20 10:16:06;;;;;;;2.60;0.93;;;17.20;47.70;;;;;;5109332;27;44831;-87
2022/01/20 10:22:00;;;;;;;1.73;0.80;;;16.90;44.40;;;;;;5113402;27;45120;-86
2022/01/20 10:24:41;;;;;;;2.03;0.82;;;16.90;44.60;;;;;;5121438;27;45141;-86
2022/01/20 10:30:04;;;;;;;1.70;0.75;;;16.90;47.30;;;;;;5104141;27;47251;-86
2022/01/20 10:35:48;;;;;;;1.20;0.63;;;16.90;45.20;;;;;;5114081;27;45102;-86
2022/01/20 10:38:20;;;;;;;1.50;0.70;;;16.90;46.70;;;;;;5110869;27;45387;-86
2022/01/20 10:44:09;;;;;;;2.47;0.90;;;17.20;44.30;;;;;;5123330;27;45297;-86
2022/01/20 10:53:47;;;;;;;3.42;1.02;;;17.00;44.80;;;;;;5122148;27;45576;-85
2022/01/20 10:56:18;;;;;;;1.63;0.60;;;16.90;45.50;;;;;;5114919;27;45147;-86
2022/01/20 10:58:55;;;;;;;1.98;0.70;;;16.90;44.50;;;;;;5103476;27;44984;-87
2022/01/20 11:01:32;;;;;;;1.45;0.80;;;17.00;45.40;;;;;;5103914;27;45321;-86
2022/01/20 11:04:26;;;;;;;1.63;0.70;;;16.90;46.20;;;;;;5114753;27;45774;-87
2022/01/20 11:07:05;;;;;;;1.80;0.70;;;17.40;44.80;;;;;;5106671;27;45182;-86
2022/01/20 11:10:04;;;;;;;2.72;1.00;;;16.90;44.40;;;;;;5111116;27;45522;-86
2022/01/20 11:12:46;;;;;;;2.33;0.75;;;17.00;49.30;;;;;;5122897;27;44946;-86
2022/01/20 11:15:32;;;;;;;2.25;0.73;;;17.00;46.30;;;;;;5120029;27;45725;-86
2022/01/20 11:18:09;;;;;;;4.40;1.20;;;17.40;45.10;;;;;;5109953;27;44812;-86
2022/01/20 11:21:10;;;;;;;3.55;0.98;;;18.50;47.40;;;;;;5117495;27;44815;-87
2022/01/20 11:23:49;;;;;;;1.83;0.75;;;17.00;44.80;;;;;;5118898;27;45277;-86
2022/01/20 11:29:13;;;;;;;2.58;0.90;;;16.90;47.30;;;;;;5102416;27;44808;-87
2022/01/20 11:31:52;;;;;;;2.88;0.75;;;15.60;43.30;;;;;;5114996;27;45337;-86
2022/01/20 11:34:45;;;;;;;3.90;0.85;;;17.00;46.60;;;;;;5117378;27;44754;-87
2022/01/20 11:37:24;;;;;;;3.13;1.27;;;17.10;44.00;;;;;;5123512;27;46175;-86
2022/01/20 11:40:16;;;;;;;2.13;0.85;;;17.30;45.10;;;;;;5114425;27;45045;-86
2022/01/20 11:43:05;;;;;;;1.30;0.63;;;17.00;44.40;;;;;;5124305;27;44792;-86
2022/01/20 11:48:45;;;;;;;2.42;0.93;;;16.90;44.20;;;;;;5119492;27;45332;-87
2022/01/20 11:51:25;;;;;;;3.38;1.02;;;16.90;44.90;;;;;;5113899;27;45199;-87
2022/01/20 11:54:19;;;;;;;3.80;0.95;;;17.10;46.50;;;;;;5114635;27;45272;-86
2022/01/20 12:00:24;;;;;;;2.30;0.90;;;16.90;44.60;;;;;;5123972;27;45685;-87
2022/01/20 12:03:00;;;;;;;4.07;1.17;;;16.90;44.70;;;;;;5107525;27;45191;-86
2022/01/20 12:05:42;;;;;;;3.53;1.05;;;17.10;45.40;;;;;;5122158;27;44785;-87
2022/01/20 12:08:21;;;;;;;2.40;0.93;;;15.40;43.70;;;;;;5112667;27;45109;-87
2022/01/20 12:11:16;;;;;;;2.97;1.00;;;17.30;45.50;;;;;;5109326;27;47502;-87
2022/01/20 12:14:04;;;;;;;2.97;0.90;;;16.90;44.80;;;;;;5112332;27;45331;-86
2022/01/20 12:16:40;;;;;;;3.13;1.00;;;16.90;44.80;;;;;;5112260;27;45146;-87
2022/01/20 12:25:43;;;;;;;2.95;0.93;;;17.00;43.80;;;;;;5108557;27;45317;-88
2022/01/20 12:28:19;;;;;;;3.55;1.05;;;15.80;42.50;;;;;;5106820;27;45245;-86
2022/01/20 12:31:24;;;;;;;3.78;1.10;;;17.00;45.10;;;;;;5115973;27;45081;-87
2022/01/20 12:34:10;;;;;;;3.17;1.15;;;17.00;43.50;;;;;;5104899;27;45742;-86
2022/01/20 12:36:59;;;;;;;2.20;0.90;;;17.30;47.00;;;;;;5120348;27;45152;-86
2022/01/20 12:48:58;;;;;;;4.80;1.33;;;16.90;44.20;;;;;;5098996;27;45159;-86
2022/01/20 12:52:01;;;;;;;3.42;0.98;;;17.40;44.50;;;;;;5116004;27;45242;-87
2022/01/20 12:54:39;;;;;;;2.47;1.10;;;17.30;44.80;;;;;;5108010;27;45250;-86
2022/01/20 12:57:23;;;;;;;3.15;0.93;;;16.90;43.70;;;;;;5113215;27;45287;-86
2022/01/20 13:00:09;;;;;;;3.22;1.20;;;17.00;43.60;;;;;;5121716;27;44716;-87
2022/01/20 13:05:59;;;;;;;2.40;0.88;;;16.90;43.70;;;;;;5106534;27;45088;-86
2022/01/20 13:20:31;;;;;;;3.08;1.08;;;17.00;43.90;;;;;;5125090;27;45260;-86
2022/01/20 13:26:17;;;;;;;4.03;1.08;;;16.90;42.30;;;;;;5106992;28;45348;-87
2022/01/20 13:44:59;;;;;;;1.63;0.65;;;15.40;40.70;;;;;;5108788;28;44826;-87
2022/01/20 13:46:07;;;;;;;1.55;0.80;;;17.00;42.70;;;;;;5109859;27;45529;-88
2022/01/20 14:28:25;;;;;;;3.17;0.88;;;17.30;43.00;;;;;;5120250;27;44795;-87
2022/01/20 14:37:53;;;;;;;4.57;0.80;;;17.20;42.80;;;;;;5113503;27;45474;-87
2022/01/20 14:50:20;;;;;;;2.40;0.88;;;17.20;43.20;;;;;;5093247;28;46564;-86
2022/01/20 14:52:52;;;;;;;3.97;0.77;;;14.60;40.90;;;;;;5104184;27;45871;-87
2022/01/20 14:55:42;;;;;;;3.08;0.90;;;16.90;42.20;;;;;;5111596;27;44794;-87
2022/01/20 15:01:05;;;;;;;2.55;0.80;;;17.50;45.60;;;;;;5106977;27;45351;-87
2022/01/20 15:03:36;;;;;;;2.63;0.73;;;16.30;45.00;;;;;;5103942;27;45097;-86
2022/01/20 15:06:05;;;;;;;2.33;0.88;;;17.00;44.80;;;;;;5109861;27;45252;-87
2022/01/20 15:08:36;;;;;;;2.17;0.70;;;16.90;44.80;;;;;;5114728;27;45080;-86
2022/01/20 15:11:06;;;;;;;2.90;0.95;;;17.20;44.40;;;;;;5108051;27;45509;-87
2022/01/20 15:13:36;;;;;;;1.77;0.63;;;16.90;45.30;;;;;;5104275;27;45170;-84
2022/01/20 15:16:13;;;;;;;1.45;0.70;;;16.90;44.00;;;;;;5107768;27;45101;-85
2022/01/20 15:18:45;;;;;;;1.85;0.80;;;16.90;45.90;;;;;;5103560;27;45234;-86
2022/01/20 15:21:47;;;;;;;1.90;0.80;;;16.90;44.30;;;;;;5115501;27;46355;-88
2022/01/20 15:30:09;;;;;;;3.40;1.00;;;17.10;42.30;;;;;;5159696;22;45026;-84
2022/01/20 15:32:36;;;;;;;4.72;1.08;;;17.20;43.40;;;;;;5058877;28;47080;-76
2022/01/20 15:35:12;;;;;;;7.78;1.30;;;16.90;43.20;;;;;;5061240;28;45669;-82
2022/01/20 15:37:42;;;;;;;13.43;1.65;;;17.00;43.50;;;;;;5056495;28;45350;-83
2022/01/20 15:40:22;;;;;;;10.75;1.23;;;17.00;44.00;;;;;;5062143;28;45136;-84
2022/01/20 15:42:50;;;;;;;5.22;1.08;;;17.00;42.90;;;;;;5061722;28;47621;-84
2022/01/20 15:45:17;;;;;;;7.13;0.88;;;16.90;42.70;;;;;;5061929;28;45096;-84
2022/01/20 15:47:45;;;;;;;7.38;1.20;;;16.90;43.10;;;;;;5062771;28;45171;-85
2022/01/20 15:50:20;;;;;;;3.53;0.95;;;16.70;43.00;;;;;;5062494;28;45286;-82
2022/01/20 15:52:47;;;;;;;3.17;1.00;;;16.90;42.70;;;;;;5062990;28;47128;-83
2022/01/20 15:55:14;;;;;;;3.88;1.10;;;16.80;42.80;;;;;;5062802;28;45151;-84
2022/01/20 15:57:42;;;;;;;5.10;1.20;;;16.80;44.20;;;;;;5063504;28;45116;-83
2022/01/20 16:00:14;;;;;;;2.75;0.95;;;16.80;43.30;;;;;;5062449;28;44818;-85
2022/01/20 16:02:51;;;;;;;2.78;0.90;;;14.80;41.30;;;;;;5052505;28;47848;-85
2022/01/20 16:05:21;;;;;;;5.65;0.90;;;16.70;43.40;;;;;;5048354;28;44702;-83
2022/01/20 16:08:12;;;;;;;2.08;0.77;;;16.70;43.60;;;;;;5062190;28;45177;-85
2022/01/20 16:10:40;;;;;;;6.28;0.88;;;16.80;43.20;;;;;;5051441;28;45408;-83
2022/01/20 16:13:09;;;;;;;3.70;0.77;;;16.80;43.20;;;;;;5059152;28;45447;-83
2022/01/20 16:15:37;;;;;;;4.55;0.73;;;16.80;43.60;;;;;;5065551;28;46226;-83
2022/01/20 16:18:11;;;;;;;3.40;0.88;;;16.80;44.00;;;;;;5066044;28;45155;-85
2022/01/20 16:20:41;;;;;;;3.08;1.13;;;16.70;46.50;;;;;;5065979;28;45521;-86
2022/01/20 16:23:10;;;;;;;3.75;1.00;;;16.20;43.70;;;;;;5065598;28;45975;-84
2022/01/20 16:25:42;;;;;;;2.72;1.00;;;16.70;44.00;;;;;;5065608;28;45494;-85
2022/01/20 16:28:13;;;;;;;2.63;0.90;;;16.80;44.20;;;;;;5058436;28;44842;-85
2022/01/20 16:30:43;;;;;;;2.97;1.02;;;17.00;45.40;;;;;;5059861;28;45271;-86
2022/01/20 16:33:14;;;;;;;2.85;0.98;;;16.70;44.50;;;;;;5059277;28;45473;-85
2022/01/20 16:35:44;;;;;;;4.53;0.93;;;17.00;45.00;;;;;;5059907;28;45121;-85
2022/01/20 16:38:17;;;;;;;2.10;0.90;;;16.70;45.30;;;;;;5061478;28;44704;-85
2022/01/20 16:40:55;;;;;;;3.60;1.25;;;16.70;44.70;;;;;;5064938;28;45251;-84
2022/01/20 16:43:30;;;;;;;4.50;1.10;;;16.60;45.10;;;;;;5061226;28;45433;-83
2022/01/20 16:46:00;;;;;;;2.25;0.85;;;16.60;44.70;;;;;;5062961;28;45300;-83
2022/01/20 16:48:31;;;;;;;7.68;1.13;;;16.60;45.10;;;;;;5052448;28;45233;-83
2022/01/20 16:51:01;;;;;;;22.17;1.75;;;16.70;46.60;;;;;;5054973;28;45130;-81
2022/01/20 16:53:29;;;;;;;8.43;1.83;;;16.90;46.20;;;;;;5048241;28;47046;-78
2022/01/20 16:55:56;;;;;;;11.82;1.77;;;16.90;48.10;;;;;;5043300;28;46770;-77
2022/01/20 16:58:23;;;;;;;9.18;1.73;;;16.90;49.60;;;;;;5049705;28;45272;-76
2022/01/20 17:00:50;;;;;;;6.05;1.65;;;16.80;48.80;;;;;;5050306;28;45559;-76
2022/01/20 17:03:18;;;;;;;7.40;1.20;;;16.80;49.70;;;;;;5049152;28;47262;-77
2022/01/20 17:05:47;;;;;;;9.18;1.60;;;16.70;50.90;;;;;;5049648;28;45255;-77
2022/01/20 17:08:15;;;;;;;2.40;1.38;;;16.70;50.70;;;;;;5040819;28;45212;-77
2022/01/20 17:10:42;;;;;;;4.20;1.17;;;16.70;51.00;;;;;;5050675;28;45292;-77
2022/01/20 17:13:11;;;;;;;3.78;1.30;;;16.70;51.90;;;;;;5050161;28;46565;-77
2022/01/20 17:15:38;;;;;;;4.82;1.65;;;16.70;52.80;;;;;;5049371;28;45938;-77
2022/01/20 17:18:05;;;;;;;6.38;1.38;;;16.70;52.10;;;;;;5049728;28;45113;-77
2022/01/20 17:20:33;;;;;;;5.72;1.23;;;16.60;50.80;;;;;;5040928;28;45905;-78
2022/01/20 17:23:00;;;;;;;3.90;1.08;;;16.60;50.80;;;;;;5046622;28;47992;-77
2022/01/20 17:25:28;;;;;;;5.20;1.15;;;16.60;50.80;;;;;;5046331;28;45204;-77
2022/01/20 17:27:55;;;;;;;4.35;1.20;;;16.60;51.30;;;;;;5048212;28;45276;-77
2022/01/20 17:30:23;;;;;;;4.30;1.35;;;16.60;51.40;;;;;;5046792;28;45283;-77
2022/01/20 17:32:50;;;;;;;4.20;1.30;;;16.60;51.80;;;;;;5047824;28;46608;-78
2022/01/20 17:35:17;;;;;;;2.88;1.10;;;16.70;51.90;;;;;;5047974;28;45421;-77
2022/01/20 17:37:44;;;;;;;3.17;0.98;;;16.70;52.60;;;;;;5048946;28;45204;-77
2022/01/20 17:40:12;;;;;;;4.28;1.35;;;16.70;52.60;;;;;;5050312;28;45371;-77
2022/01/20 17:42:41;;;;;;;3.00;1.10;;;16.60;52.70;;;;;;5048956;28;46593;-77
2022/01/20 17:45:09;;;;;;;4.38;1.20;;;16.70;52.90;;;;;;5047450;28;45205;-77
2022/01/20 17:47:36;;;;;;;4.95;1.25;;;16.60;52.90;;;;;;5050252;28;45530;-77
2022/01/20 17:50:05;;;;;;;3.88;1.10;;;16.60;52.90;;;;;;5049816;28;45214;-77
2022/01/20 17:52:32;;;;;;;3.05;0.95;;;16.60;52.90;;;;;;5028939;28;46216;-78
2022/01/20 17:54:59;;;;;;;3.60;1.10;;;16.60;52.20;;;;;;5031885;28;45290;-77
2022/01/20 17:57:26;;;;;;;3.30;1.10;;;16.70;51.90;;;;;;5049583;28;45313;-77
2022/01/20 17:59:54;;;;;;;4.13;1.27;;;16.70;51.60;;;;;;5042090;28;45382;-77
2022/01/20 18:02:21;;;;;;;3.13;1.10;;;16.70;51.40;;;;;;5041038;28;47850;-77
2022/01/20 18:04:48;;;;;;;3.38;1.25;;;16.70;51.50;;;;;;5039742;28;45223;-76
2022/01/20 18:07:15;;;;;;;3.55;1.15;;;16.70;51.00;;;;;;5043370;28;45241;-77
2022/01/20 18:09:42;;;;;;;3.00;1.20;;;16.70;52.00;;;;;;5046586;28;45694;-77
2022/01/20 18:12:09;;;;;;;4.40;1.20;;;16.70;51.80;;;;;;5048452;28;46277;-77
2022/01/20 18:14:36;;;;;;;3.88;1.40;;;16.70;52.00;;;;;;5049113;28;45331;-77
2022/01/20 18:17:04;;;;;;;3.08;1.02;;;16.70;52.50;;;;;;5048173;28;45260;-77
2022/01/20 18:19:31;;;;;;;2.38;1.05;;;16.60;53.60;;;;;;5049598;28;45272;-77
2022/01/20 18:21:58;;;;;;;5.45;1.50;;;16.60;52.90;;;;;;5041776;28;46317;-77
2022/01/20 18:24:25;;;;;;;4.75;1.30;;;16.60;53.40;;;;;;5042363;28;45251;-77
2022/01/20 18:26:52;;;;;;;3.85;0.85;;;16.60;53.80;;;;;;5048687;28;45251;-77
2022/01/20 18:29:19;;;;;;;3.42;1.35;;;16.60;54.00;;;;;;5049560;28;45320;-77
2022/01/20 18:31:48;;;;;;;3.08;1.10;;;16.60;54.00;;;;;;5058400;28;47903;-77
2022/01/20 18:34:18;;;;;;;3.75;1.30;;;16.50;54.20;;;;;;5063995;28;45255;-77
2022/01/20 18:36:45;;;;;;;2.95;1.00;;;16.50;54.50;;;;;;5056012;28;45197;-77
2022/01/20 18:39:12;;;;;;;3.92;1.35;;;16.50;55.50;;;;;;5049084;28;45521;-77
2022/01/20 18:41:40;;;;;;;2.53;0.90;;;16.50;55.90;;;;;;5049264;28;48227;-77
2022/01/20 18:44:07;;;;;;;3.65;1.45;;;16.60;57.00;;;;;;5049072;28;45169;-77
2022/01/20 18:46:34;;;;;;;5.35;1.48;;;16.60;56.70;;;;;;5048433;28;45400;-77
2022/01/20 18:49:01;;;;;;;3.35;1.23;;;16.50;56.30;;;;;;5038582;28;45279;-76
2022/01/20 18:51:29;;;;;;;2.90;1.20;;;16.50;55.40;;;;;;5049033;28;47021;-77
2022/01/20 18:53:56;;;;;;;3.63;1.10;;;16.50;54.80;;;;;;5037485;28;45229;-77
2022/01/20 18:56:24;;;;;;;2.17;1.05;;;16.60;55.50;;;;;;5049040;28;45338;-77
2022/01/20 18:58:53;;;;;;;3.85;1.05;;;16.60;56.10;;;;;;5048771;28;45171;-77
2022/01/20 19:01:21;;;;;;;3.08;1.10;;;16.60;56.30;;;;;;5048309;28;47667;-77
2022/01/20 19:03:48;;;;;;;2.45;0.93;;;16.60;57.10;;;;;;5048597;28;45312;-77
2022/01/20 19:06:15;;;;;;;2.65;1.02;;;16.60;56.60;;;;;;5047821;28;45264;-75
2022/01/20 19:08:44;;;;;;;5.72;1.20;;;16.60;57.40;;;;;;5047696;28;45245;-74
2022/01/20 19:11:12;;;;;;;2.00;0.95;;;16.60;59.80;;;;;;5046770;28;45484;-74
2022/01/20 19:13:41;;;;;;;3.00;1.10;;;16.60;58.10;;;;;;5046720;28;45264;-74
2022/01/20 19:16:08;;;;;;;4.38;1.20;;;16.50;59.10;;;;;;5038216;28;45232;-74
2022/01/20 19:18:36;;;;;;;6.05;1.00;;;16.50;59.30;;;;;;5046254;28;45398;-75
2022/01/20 19:21:04;;;;;;;3.25;1.20;;;16.50;59.80;;;;;;5047184;28;47280;-75
2022/01/20 19:23:30;;;;;;;2.95;1.20;;;16.50;60.00;;;;;;5047285;28;45209;-74
2022/01/20 19:25:59;;;;;;;3.15;1.40;;;16.50;58.50;;;;;;5047305;28;45263;-74
2022/01/20 19:28:25;;;;;;;3.17;1.10;;;16.50;57.70;;;;;;5045277;28;45573;-75
2022/01/20 19:30:53;;;;;;;2.60;1.00;;;16.50;57.30;;;;;;5046269;28;46442;-74
2022/01/20 19:33:20;;;;;;;4.47;1.05;;;16.50;57.50;;;;;;5045198;28;45408;-74
2022/01/20 19:35:47;;;;;;;4.15;1.27;;;16.60;58.50;;;;;;5047233;28;45210;-75